createdAt,value
2023-03-26T00:00:45.531Z,8.98
2023-03-26T00:03:33.679Z,8.94
2023-03-26T00:06:08.862Z,8.95
2023-03-26T00:08:36.635Z,8.92
2023-03-26T00:11:05.112Z,8.96
2023-03-26T00:13:33.248Z,8.93
2023-03-26T00:16:01.329Z,8.97
2023-03-26T00:18:31.633Z,8.98
2023-03-26T00:20:59.587Z,8.93
2023-03-26T00:23:27.400Z,8.95
2023-03-26T00:25:56.259Z,8.95
2023-03-26T00:28:24.269Z,8.97
2023-03-26T00:30:57.810Z,9.03
2023-03-26T00:33:24.747Z,9.03
2023-03-26T00:38:19.954Z,9.04
2023-03-26T00:40:51.137Z,9.02
2023-03-26T00:43:22.519Z,9.02
2023-03-26T00:45:51.540Z,9.07
2023-03-26T00:48:19.019Z,9.13
2023-03-26T00:50:47.297Z,9.13
2023-03-26T00:53:20.114Z,9.18
2023-03-26T00:55:47.818Z,9.15
2023-03-26T00:58:15.211Z,9.12
2023-03-26T01:00:48.481Z,9.11
2023-03-26T01:03:24.965Z,9.08
2023-03-26T01:06:02.715Z,9.07
2023-03-26T01:08:35.642Z,9.09
2023-03-26T01:11:06.993Z,9.07
2023-03-26T01:13:36.784Z,9.02
2023-03-26T01:16:20.232Z,9.06
2023-03-26T01:18:48.656Z,9.03
2023-03-26T01:21:22.900Z,9.14
2023-03-26T01:24:00.415Z,9.24
2023-03-26T01:26:33.998Z,9.32
2023-03-26T01:29:02.798Z,9.36
2023-03-26T01:31:56.622Z,9.37
2023-03-26T01:34:43.701Z,9.40
2023-03-26T01:37:13.279Z,9.54
2023-03-26T01:39:40.642Z,9.61
2023-03-26T01:42:19.637Z,9.61
2023-03-26T01:44:52.647Z,9.61
2023-03-26T01:47:21.552Z,9.61
2023-03-26T01:49:48.775Z,9.64
2023-03-26T01:52:25.359Z,9.65
2023-03-26T01:54:55.650Z,9.65
2023-03-26T01:57:38.790Z,9.63
2023-03-26T02:00:18.271Z,9.69
2023-03-26T02:02:54.980Z,9.74
2023-03-26T02:05:29.206Z,9.76
2023-03-26T02:08:05.884Z,9.77
2023-03-26T02:10:39.428Z,9.78
2023-03-26T02:13:06.892Z,9.72
2023-03-26T02:15:33.893Z,9.67
2023-03-26T02:18:02.008Z,9.63
2023-03-26T02:20:33.928Z,9.56
2023-03-26T02:23:01.444Z,9.55
2023-03-26T02:25:29.220Z,9.62
2023-03-26T02:27:58.288Z,9.62
2023-03-26T02:30:25.909Z,9.62
2023-03-26T02:32:59.462Z,9.61
2023-03-26T02:35:32.488Z,9.51
2023-03-26T02:38:04.142Z,9.42
2023-03-26T02:40:31.355Z,9.35
2023-03-26T02:42:59.120Z,9.22
2023-03-26T02:45:28.353Z,9.19
2023-03-26T02:48:08.129Z,9.12
2023-03-26T02:50:50.220Z,9.10
2023-03-26T02:53:46.079Z,9.08
2023-03-26T02:56:37.298Z,9.00
2023-03-26T02:59:25.359Z,8.96
2023-03-26T03:02:13.542Z,8.91
2023-03-26T03:04:44.154Z,8.87
2023-03-26T03:07:14.516Z,8.86
2023-03-26T03:09:42.016Z,8.86
2023-03-26T03:12:27.327Z,8.79
2023-03-26T03:14:57.020Z,8.84
2023-03-26T03:17:26.812Z,8.81
2023-03-26T03:19:56.562Z,8.81
2023-03-26T03:22:23.510Z,8.84
2023-03-26T03:24:52.091Z,8.84
2023-03-26T03:27:24.000Z,8.80
2023-03-26T03:29:59.084Z,8.95
2023-03-26T03:32:58.335Z,9.01
2023-03-26T03:35:27.769Z,9.02
2023-03-26T03:37:58.342Z,9.00
2023-03-26T03:40:26.684Z,8.99
2023-03-26T03:42:53.744Z,8.96
2023-03-26T03:45:30.422Z,8.94
2023-03-26T03:48:06.933Z,8.95
2023-03-26T03:50:44.128Z,8.95
2023-03-26T03:53:37.385Z,8.96
2023-03-26T03:56:10.248Z,8.97
2023-03-26T03:59:00.639Z,9.15
2023-03-26T04:01:33.683Z,9.19
2023-03-26T04:04:06.635Z,9.26
2023-03-26T04:06:49.622Z,9.26
2023-03-26T04:09:17.061Z,9.29
2023-03-26T04:11:46.817Z,9.28
2023-03-26T04:14:32.389Z,9.29
2023-03-26T04:17:05.441Z,9.24
2023-03-26T04:19:35.119Z,9.13
2023-03-26T04:22:03.172Z,9.09
2023-03-26T04:24:38.404Z,9.03
2023-03-26T04:27:27.377Z,9.01
2023-03-26T04:30:01.998Z,8.99
2023-03-26T04:32:34.235Z,8.98
2023-03-26T04:35:04.195Z,8.93
2023-03-26T04:37:40.052Z,8.94
2023-03-26T04:40:19.469Z,8.87
2023-03-26T04:43:06.926Z,8.78
2023-03-26T04:45:54.933Z,8.85
2023-03-26T04:48:25.814Z,8.77
2023-03-26T04:50:52.922Z,8.76
2023-03-26T04:53:24.280Z,8.70
2023-03-26T04:56:28.817Z,8.66
2023-03-26T04:59:17.057Z,8.62
2023-03-26T05:01:46.104Z,8.65
2023-03-26T05:04:15.664Z,8.68
2023-03-26T05:06:43.493Z,8.64
2023-03-26T05:09:21.319Z,8.68
2023-03-26T05:12:11.289Z,8.81
2023-03-26T05:14:53.202Z,8.80
2023-03-26T05:17:31.197Z,8.84
2023-03-26T05:20:01.139Z,8.80
2023-03-26T05:22:28.084Z,8.91
2023-03-26T05:25:15.663Z,9.10
2023-03-26T05:27:42.963Z,9.36
2023-03-26T05:30:13.992Z,9.38
2023-03-26T05:32:44.589Z,9.36
2023-03-26T05:35:12.724Z,9.35
2023-03-26T05:37:40.068Z,9.35
2023-03-26T05:40:12.340Z,9.30
2023-03-26T05:42:47.453Z,9.38
2023-03-26T05:45:33.168Z,9.42
2023-03-26T05:48:08.509Z,9.43
2023-03-26T05:50:35.943Z,9.49
2023-03-26T05:53:02.844Z,9.53
2023-03-26T05:55:33.473Z,9.65
2023-03-26T05:58:12.972Z,9.72
2023-03-26T06:00:58.537Z,9.82
2023-03-26T06:03:39.095Z,9.95
2023-03-26T06:06:19.387Z,10.15
2023-03-26T06:09:02.208Z,10.27
2023-03-26T06:11:31.953Z,10.38
2023-03-26T06:14:02.806Z,10.48
2023-03-26T06:16:30.954Z,10.71
2023-03-26T06:19:14.504Z,10.85
2023-03-26T06:22:20.423Z,11.13
2023-03-26T06:25:10.095Z,10.92
2023-03-26T06:28:09.828Z,10.86
2023-03-26T06:30:39.523Z,10.78
2023-03-26T06:33:41.988Z,10.78
2023-03-26T06:36:11.038Z,11.85
2023-03-26T06:38:38.661Z,12.89
2023-03-26T06:41:07.368Z,12.52
2023-03-26T06:43:58.371Z,12.32
2023-03-26T06:46:37.168Z,12.17
2023-03-26T06:49:25.392Z,11.94
2023-03-26T06:52:11.516Z,11.65
2023-03-26T06:54:49.044Z,11.43
2023-03-26T06:57:48.497Z,11.40
2023-03-26T07:00:55.467Z,11.34
2023-03-26T07:03:43.881Z,11.25
2023-03-26T07:06:29.627Z,11.33
2023-03-26T07:09:34.643Z,11.52
2023-03-26T07:12:30.488Z,11.49
2023-03-26T07:15:19.857Z,11.68
2023-03-26T07:18:07.332Z,13.40
2023-03-26T07:20:36.617Z,17.03
2023-03-26T07:23:04.403Z,18.24
2023-03-26T07:25:52.340Z,19.41
2023-03-26T07:28:38.063Z,20.73
2023-03-26T07:31:36.819Z,21.00
2023-03-26T07:34:28.618Z,21.12
2023-03-26T07:37:27.516Z,22.13
2023-03-26T07:40:21.068Z,21.73
2023-03-26T07:43:21.673Z,20.93
2023-03-26T07:46:13.600Z,20.03
2023-03-26T07:49:12.900Z,20.74
2023-03-26T07:51:58.975Z,19.01
2023-03-26T07:54:50.488Z,18.41
2023-03-26T07:57:45.580Z,19.13
2023-03-26T08:00:48.967Z,19.60
2023-03-26T08:03:36.828Z,20.00
2023-03-26T08:06:33.407Z,20.53
2023-03-26T08:09:06.760Z,21.00
2023-03-26T08:12:18.634Z,20.22
2023-03-26T08:14:45.894Z,19.63
2023-03-26T08:17:30.974Z,19.05
2023-03-26T08:20:13.842Z,18.68
2023-03-26T08:22:41.850Z,18.93
2023-03-26T08:29:36.782Z,16.83
2023-03-26T08:32:05.112Z,17.73
2023-03-26T08:34:32.357Z,16.25
2023-03-26T08:36:59.355Z,15.57
2023-03-26T08:39:26.768Z,14.97
2023-03-26T08:42:10.812Z,14.51
2023-03-26T08:44:47.790Z,14.73
2023-03-26T08:47:33.116Z,15.21
2023-03-26T08:50:06.671Z,14.62
2023-03-26T08:52:36.644Z,14.36
2023-03-26T08:55:12.594Z,15.29
2023-03-26T08:57:46.697Z,15.01
2023-03-26T09:00:32.846Z,14.72
2023-03-26T09:03:19.034Z,14.96
2023-03-26T09:05:49.262Z,15.00
2023-03-26T09:08:19.236Z,14.90
2023-03-26T09:10:53.522Z,14.93
2023-03-26T09:13:32.878Z,15.39
2023-03-26T09:16:18.785Z,15.81
2023-03-26T09:19:04.376Z,16.27
2023-03-26T09:21:31.488Z,16.32
2023-03-26T09:24:01.432Z,16.43
2023-03-26T09:26:44.006Z,16.92
2023-03-26T09:29:31.615Z,16.79
2023-03-26T09:32:05.833Z,16.90
2023-03-26T09:34:41.908Z,16.75
2023-03-26T09:37:21.722Z,16.19
2023-03-26T09:40:07.844Z,16.41
2023-03-26T09:42:37.521Z,16.82
2023-03-26T09:45:10.713Z,16.92
2023-03-26T09:47:51.968Z,16.71
2023-03-26T09:50:25.118Z,16.12
2023-03-26T09:53:11.095Z,16.01
2023-03-26T09:55:57.393Z,15.82
2023-03-26T09:58:27.770Z,15.87
2023-03-26T10:01:00.865Z,15.89
2023-03-26T10:03:31.724Z,15.95
2023-03-26T10:05:59.120Z,16.06
2023-03-26T10:08:35.309Z,16.19
2023-03-26T10:11:03.054Z,16.03
2023-03-26T10:13:49.308Z,16.30
2023-03-26T10:16:36.395Z,16.46
2023-03-26T10:19:19.144Z,16.45
2023-03-26T10:21:55.090Z,16.73
2023-03-26T10:29:12.764Z,16.92
2023-03-26T10:31:43.048Z,16.75
2023-03-26T10:34:29.874Z,16.75
2023-03-26T10:37:06.766Z,16.86
2023-03-26T10:42:10.648Z,17.12
2023-03-26T10:44:43.656Z,17.08
2023-03-26T10:47:10.646Z,17.18
2023-03-26T10:49:49.935Z,17.21
2023-03-26T10:52:22.560Z,17.62
2023-03-26T10:54:52.837Z,17.86
2023-03-26T10:57:26.356Z,17.74
2023-03-26T10:59:55.662Z,17.91
2023-03-26T11:02:38.787Z,17.82
2023-03-26T11:05:09.116Z,17.89
2023-03-26T11:07:42.437Z,17.85
2023-03-26T11:10:16.961Z,17.71
2023-03-26T11:12:46.921Z,17.67
2023-03-26T11:15:14.327Z,17.72
2023-03-26T11:17:56.539Z,17.70
2023-03-26T11:20:49.187Z,17.96
2023-03-26T11:23:16.346Z,17.96
2023-03-26T11:25:59.096Z,17.82
2023-03-26T11:28:26.492Z,18.09
2023-03-26T11:31:14.407Z,18.05
2023-03-26T11:33:53.052Z,18.27
2023-03-26T11:36:25.053Z,18.26
2023-03-26T11:38:57.755Z,18.09
2023-03-26T11:41:33.091Z,17.55
2023-03-26T11:44:13.046Z,17.65
2023-03-26T11:46:43.864Z,17.90
2023-03-26T11:49:13.046Z,17.94
2023-03-26T11:51:41.473Z,17.84
2023-03-26T11:54:12.510Z,17.82
2023-03-26T11:57:04.598Z,17.67
2023-03-26T11:59:56.623Z,17.70
2023-03-26T12:02:24.895Z,17.67
2023-03-26T12:04:55.508Z,17.67
2023-03-26T12:07:31.893Z,17.69
2023-03-26T12:10:18.396Z,17.72
2023-03-26T12:12:49.511Z,17.82
2023-03-26T12:15:20.510Z,17.82
2023-03-26T12:17:48.746Z,17.81
2023-03-26T12:20:25.950Z,17.62
2023-03-26T12:22:59.276Z,17.66
2023-03-26T12:25:31.829Z,17.84
2023-03-26T12:28:03.620Z,17.91
2023-03-26T12:30:35.458Z,17.90
2023-03-26T12:33:22.257Z,17.96
2023-03-26T12:35:51.743Z,17.97
2023-03-26T12:38:29.313Z,18.18
2023-03-26T12:44:47.836Z,18.27
2023-03-26T12:44:52.933Z,18.50
2023-03-26T12:47:59.157Z,18.31
2023-03-26T12:50:04.276Z,18.23
2023-03-26T12:52:46.876Z,18.12
2023-03-26T12:55:30.960Z,17.98
2023-03-26T12:58:13.832Z,17.77
2023-03-26T13:00:50.840Z,17.84
2023-03-26T13:03:30.790Z,17.85
2023-03-26T13:06:22.067Z,17.87
2023-03-26T13:09:05.164Z,18.05
2023-03-26T13:11:35.549Z,18.07
2023-03-26T13:14:02.582Z,17.94
2023-03-26T13:16:42.185Z,17.59
2023-03-26T13:19:21.540Z,17.48
2023-03-26T13:22:07.632Z,17.43
2023-03-26T13:24:35.137Z,17.45
2023-03-26T13:27:21.322Z,17.26
2023-03-26T13:29:49.966Z,17.11
2023-03-26T13:32:34.803Z,17.04
2023-03-26T13:35:04.703Z,17.05
2023-03-26T13:37:38.408Z,16.85
2023-03-26T13:40:14.494Z,16.74
2023-03-26T13:42:47.678Z,16.67
2023-03-26T13:45:27.455Z,16.60
2023-03-26T13:47:57.127Z,16.61
2023-03-26T13:50:35.939Z,16.71
2023-03-26T13:53:07.140Z,16.77
2023-03-26T13:55:37.475Z,16.72
2023-03-26T13:58:11.316Z,16.64
2023-03-26T14:00:44.441Z,16.57
2023-03-26T14:03:28.009Z,16.50
2023-03-26T14:05:57.696Z,16.49
2023-03-26T14:08:34.010Z,16.46
2023-03-26T14:11:11.644Z,16.37
2023-03-26T14:13:44.052Z,16.36
2023-03-26T14:16:34.787Z,16.24
2023-03-26T14:19:21.082Z,16.22
2023-03-26T14:21:57.121Z,16.34
2023-03-26T14:24:27.363Z,16.36
2023-03-26T14:26:54.984Z,16.43
2023-03-26T14:29:31.466Z,16.42
2023-03-26T14:31:58.396Z,16.48
2023-03-26T14:34:34.866Z,16.47
2023-03-26T14:37:14.132Z,16.45
2023-03-26T14:40:05.109Z,16.34
2023-03-26T14:42:46.757Z,16.19
2023-03-26T14:45:35.107Z,16.13
2023-03-26T14:48:23.052Z,16.03
2023-03-26T14:51:09.199Z,15.88
2023-03-26T14:53:38.450Z,15.83
2023-03-26T14:56:17.833Z,15.79
2023-03-26T14:59:14.155Z,15.77
2023-03-26T15:01:50.873Z,15.79
2023-03-26T15:04:18.531Z,15.74
2023-03-26T15:06:55.164Z,15.68
2023-03-26T15:09:35.027Z,15.51
2023-03-26T15:12:21.680Z,15.49
2023-03-26T15:15:01.701Z,15.35
2023-03-26T15:17:37.385Z,15.28
2023-03-26T15:20:26.157Z,15.17
2023-03-26T15:23:16.719Z,15.10
2023-03-26T15:25:43.855Z,15.03
2023-03-26T15:28:14.736Z,14.93
2023-03-26T15:31:01.499Z,14.90
2023-03-26T15:33:41.938Z,14.83
2023-03-26T15:36:17.809Z,14.81
2023-03-26T15:38:52.311Z,14.75
2023-03-26T15:41:42.354Z,14.65
2023-03-26T15:44:24.041Z,14.64
2023-03-26T15:46:53.422Z,14.63
2023-03-26T15:49:24.080Z,14.62
2023-03-26T15:51:54.580Z,14.57
2023-03-26T15:54:29.252Z,14.51
2023-03-26T15:57:02.839Z,14.42
2023-03-26T15:59:41.840Z,14.35
2023-03-26T16:02:23.141Z,14.28
2023-03-26T16:04:55.458Z,14.19
2023-03-26T16:07:43.476Z,14.14
2023-03-26T16:10:23.582Z,14.09
2023-03-26T16:13:20.031Z,14.05
2023-03-26T16:16:17.851Z,14.01
2023-03-26T16:18:54.630Z,14.00
2023-03-26T16:21:34.813Z,13.99
2023-03-26T16:24:08.763Z,13.92
2023-03-26T16:26:40.137Z,13.78
2023-03-26T16:29:15.115Z,13.62
2023-03-26T16:31:58.356Z,13.52
2023-03-26T16:34:29.289Z,13.36
2023-03-26T16:37:00.362Z,13.21
2023-03-26T16:39:41.784Z,13.12
2023-03-26T16:42:18.514Z,13.06
2023-03-26T16:44:52.315Z,12.98
2023-03-26T16:47:39.622Z,12.88
2023-03-26T16:50:28.759Z,12.86
2023-03-26T16:52:56.732Z,12.86
2023-03-26T16:55:43.487Z,12.94
2023-03-26T16:58:38.278Z,12.86
2023-03-26T17:01:19.425Z,12.77
2023-03-26T17:04:00.714Z,12.76
2023-03-26T17:06:31.836Z,12.74
2023-03-26T17:09:21.766Z,12.70
2023-03-26T17:12:08.432Z,12.60
2023-03-26T17:14:49.603Z,12.57
2023-03-26T17:17:37.337Z,12.48
2023-03-26T17:20:14.686Z,12.45
2023-03-26T17:23:02.978Z,12.40
2023-03-26T17:25:52.034Z,12.35
2023-03-26T17:28:40.473Z,12.33
2023-03-26T17:31:28.854Z,12.29
2023-03-26T17:34:16.410Z,12.24
2023-03-26T17:36:44.729Z,12.18
2023-03-26T17:39:21.260Z,12.12
2023-03-26T17:41:58.066Z,12.11
2023-03-26T17:44:39.068Z,12.03
2023-03-26T17:47:13.529Z,12.02
2023-03-26T17:49:41.830Z,11.98
2023-03-26T17:52:16.229Z,11.96
2023-03-26T17:54:50.695Z,11.94
2023-03-26T17:57:19.123Z,11.88
2023-03-26T17:59:48.020Z,11.84
2023-03-26T18:02:27.263Z,11.77
2023-03-26T18:04:56.411Z,11.71
2023-03-26T18:07:27.899Z,11.64
2023-03-26T18:10:14.374Z,11.56
2023-03-26T18:12:53.365Z,11.55
2023-03-26T18:15:33.504Z,11.53
2023-03-26T18:18:14.182Z,11.49
2023-03-26T18:20:47.465Z,11.51
2023-03-26T18:23:24.628Z,11.44
2023-03-26T18:26:09.143Z,11.43
2023-03-26T18:28:42.066Z,11.40
2023-03-26T18:31:23.543Z,11.33
2023-03-26T18:33:56.339Z,11.32
2023-03-26T18:36:25.309Z,11.25
2023-03-26T18:38:56.927Z,11.24
2023-03-26T18:41:42.351Z,11.19
2023-03-26T18:44:16.256Z,11.16
2023-03-26T18:46:44.717Z,11.17
2023-03-26T18:49:14.389Z,11.14
2023-03-26T18:51:55.994Z,11.11
2023-03-26T18:54:26.979Z,11.07
2023-03-26T18:56:55.778Z,11.08
2023-03-26T18:59:32.918Z,11.04
2023-03-26T19:02:11.784Z,11.03
2023-03-26T19:04:42.746Z,10.97
2023-03-26T19:07:19.716Z,10.94
2023-03-26T19:09:49.632Z,10.89
2023-03-26T19:12:21.056Z,10.85
2023-03-26T19:14:59.604Z,10.81
2023-03-26T19:17:31.444Z,10.73
2023-03-26T19:20:00.208Z,10.70
2023-03-26T19:22:29.428Z,10.59
2023-03-26T19:25:00.526Z,10.52
2023-03-26T19:27:28.778Z,10.42
2023-03-26T19:29:58.769Z,10.35
2023-03-26T19:32:32.986Z,10.24
2023-03-26T19:35:02.664Z,10.18
2023-03-26T19:37:31.584Z,10.19
2023-03-26T19:40:23.995Z,10.22
2023-03-26T19:42:54.747Z,10.18
2023-03-26T19:45:24.264Z,10.18
2023-03-26T19:48:07.374Z,10.20
2023-03-26T19:50:53.428Z,10.27
2023-03-26T19:53:29.653Z,10.32
2023-03-26T19:56:10.327Z,10.36
2023-03-26T19:58:38.259Z,10.40
2023-03-26T20:01:07.381Z,10.38
2023-03-26T20:03:45.274Z,10.41
2023-03-26T20:06:15.308Z,10.42
2023-03-26T20:08:44.750Z,10.38
2023-03-26T20:11:19.696Z,10.40
2023-03-26T20:13:50.528Z,10.37
2023-03-26T20:16:25.427Z,10.31
2023-03-26T20:18:57.814Z,10.27
2023-03-26T20:21:26.228Z,10.26
2023-03-26T20:23:54.802Z,10.30
2023-03-26T20:26:24.551Z,10.30
2023-03-26T20:28:53.624Z,10.26
2023-03-26T20:31:22.865Z,10.27
2023-03-26T20:33:54.705Z,10.31
2023-03-26T20:36:33.721Z,10.33
2023-03-26T20:39:06.338Z,10.31
2023-03-26T20:41:35.200Z,10.27
2023-03-26T20:44:05.080Z,10.24
2023-03-26T20:46:35.575Z,10.27
2023-03-26T20:49:06.647Z,10.26
2023-03-26T20:51:34.348Z,10.27
2023-03-26T20:54:02.842Z,10.26
2023-03-26T20:56:30.243Z,10.31
2023-03-26T20:59:09.760Z,10.35
2023-03-26T21:01:38.754Z,10.35
2023-03-26T21:04:08.659Z,10.27
2023-03-26T21:06:36.006Z,10.27
2023-03-26T21:09:04.116Z,10.26
2023-03-26T21:11:41.010Z,10.31
2023-03-26T21:14:16.991Z,10.35
2023-03-26T21:16:44.914Z,10.32
2023-03-26T21:19:16.937Z,10.32
2023-03-26T21:21:44.120Z,10.27
2023-03-26T21:24:20.688Z,10.28
2023-03-26T21:27:06.714Z,10.30
2023-03-26T21:29:33.881Z,10.19
2023-03-26T21:32:01.492Z,10.13
2023-03-26T21:34:29.249Z,10.10
2023-03-26T21:36:59.393Z,10.13
2023-03-26T21:39:27.917Z,10.11
2023-03-26T21:42:05.378Z,10.07
2023-03-26T21:44:33.617Z,10.05
2023-03-26T21:47:00.961Z,10.06
2023-03-26T21:49:28.406Z,10.06
2023-03-26T21:51:55.804Z,10.10
2023-03-26T21:54:29.887Z,10.05
2023-03-26T21:57:07.919Z,10.07
2023-03-26T21:59:38.966Z,10.04
2023-03-26T22:02:10.891Z,10.02
2023-03-26T22:04:47.440Z,10.00
2023-03-26T22:07:26.080Z,9.98
2023-03-26T22:09:53.146Z,10.00
2023-03-26T22:12:25.574Z,9.98
2023-03-26T22:14:52.768Z,9.94
2023-03-26T22:17:23.090Z,9.91
2023-03-26T22:19:53.027Z,9.82
2023-03-26T22:22:22.171Z,9.76
2023-03-26T22:24:49.192Z,9.73
2023-03-26T22:27:16.776Z,9.66
2023-03-26T22:29:43.666Z,9.60
2023-03-26T22:32:10.987Z,9.58
2023-03-26T22:34:41.487Z,9.55
2023-03-26T22:37:08.663Z,9.58
2023-03-26T22:39:36.213Z,9.53
2023-03-26T22:42:04.936Z,9.54
2023-03-26T22:44:32.058Z,9.55
2023-03-26T22:46:59.305Z,9.55
2023-03-26T22:49:27.499Z,9.52
2023-03-26T22:51:55.022Z,9.47
2023-03-26T22:54:22.000Z,9.43
2023-03-26T22:56:49.223Z,9.38
2023-03-26T22:59:16.123Z,9.35
2023-03-26T23:01:44.458Z,9.35
2023-03-26T23:04:30.827Z,9.33
2023-03-26T23:06:59.880Z,9.33
2023-03-26T23:09:26.764Z,9.29
2023-03-26T23:11:53.960Z,9.28
2023-03-26T23:14:21.837Z,9.25
2023-03-26T23:16:50.021Z,9.25
2023-03-26T23:19:17.950Z,9.20
2023-03-26T23:21:45.322Z,9.17
2023-03-26T23:24:15.717Z,9.19
2023-03-26T23:26:50.481Z,9.17
2023-03-26T23:29:18.350Z,9.12
2023-03-26T23:31:45.620Z,9.08
2023-03-26T23:34:18.583Z,9.05
2023-03-26T23:36:45.808Z,9.13
2023-03-26T23:39:19.413Z,9.08
2023-03-26T23:41:46.546Z,9.09
2023-03-26T23:44:14.745Z,9.17
2023-03-26T23:46:42.848Z,9.12
2023-03-26T23:49:13.281Z,9.18
2023-03-26T23:51:40.761Z,9.20
2023-03-26T23:54:08.831Z,9.13
2023-03-26T23:56:38.919Z,9.16
2023-03-26T23:59:06.187Z,9.13
